Time;durP1;ratioP1;P1;durP2;ratioP2;P2;SDS_P1;SDS_P2;PMS_P1;PMS_P2;Temp;Humidity;BMP_temperature;BMP_pressure;BME280_temperature;BME280_humidity;BME280_pressure;Samples;Min_cycle;Max_cycle;Signal;HPM_P1;HPM_P2
2021/01/10 00:00:08;;;;;;;41.60;20.20;;;;;;;;;;5011975;28;20042;-82
2021/01/10 00:02:34;;;;;;;37.55;18.65;;;;;;;;;;5013572;28;20033;-82
2021/01/10 00:05:20;;;;;;;34.45;16.88;;;;;;;;;;5007638;28;20026;-82
2021/01/10 00:07:47;;;;;;;37.90;17.77;;;;;;;;;;5010026;28;20816;-81
2021/01/10 00:10:13;;;;;;;28.90;15.43;;;;;;;;;;5014950;28;20065;-82
2021/01/10 00:12:39;;;;;;;35.38;18.38;;;;;;;;;;5023003;28;20371;-81
2021/01/10 00:15:06;;;;;;;30.85;16.98;;;;;;;;;;5037018;28;20025;-82
2021/01/10 00:17:32;;;;;;;31.42;16.60;;;;;;;;;;5018328;28;20034;-81
2021/01/10 00:19:58;;;;;;;34.70;17.20;;;;;;;;;;5033830;28;20672;-82
2021/01/10 00:22:24;;;;;;;30.85;15.75;;;;;;;;;;5022286;28;20060;-82
2021/01/10 00:24:50;;;;;;;32.17;16.80;;;;;;;;;;5010864;28;20113;-81
2021/01/10 00:27:18;;;;;;;33.13;17.63;;;;;;;;;;5013541;28;20083;-82
2021/01/10 00:29:50;;;;;;;31.13;16.23;;;;;;;;;;5007731;28;20021;-82
2021/01/10 00:32:17;;;;;;;30.40;16.73;;;;;;;;;;5013931;28;20030;-82
2021/01/10 00:34:43;;;;;;;30.60;16.25;;;;;;;;;;5018316;28;20080;-82
2021/01/10 00:37:14;;;;;;;29.00;15.55;;;;;;;;;;5010780;28;20037;-82
2021/01/10 00:39:40;;;;;;;31.40;16.35;;;;;;;;;;5008045;28;20037;-82
2021/01/10 00:42:11;;;;;;;28.60;14.52;;;;;;;;;;5014505;28;20088;-82
2021/01/10 00:44:37;;;;;;;27.27;14.07;;;;;;;;;;5015987;28;20029;-82
2021/01/10 00:47:06;;;;;;;30.83;16.05;;;;;;;;;;5029399;28;20034;-82
2021/01/10 00:49:33;;;;;;;26.52;14.20;;;;;;;;;;5013190;28;20026;-82
2021/01/10 00:51:59;;;;;;;24.88;14.02;;;;;;;;;;5030140;28;20030;-82
2021/01/10 00:54:25;;;;;;;25.90;13.25;;;;;;;;;;5043505;28;20041;-82
2021/01/10 00:56:51;;;;;;;26.95;14.68;;;;;;;;;;5037053;28;20018;-81
2021/01/10 00:59:17;;;;;;;29.02;14.25;;;;;;;;;;5008565;28;20044;-80
2021/01/10 01:01:43;;;;;;;28.30;15.25;;;;;;;;;;5019436;28;20116;-82
2021/01/10 01:04:10;;;;;;;26.15;14.52;;;;;;;;;;5026335;28;20040;-82
2021/01/10 01:06:38;;;;;;;27.80;14.57;;;;;;;;;;5025920;28;20018;-82
2021/01/10 01:09:05;;;;;;;29.90;15.95;;;;;;;;;;5015745;28;20029;-82
2021/01/10 01:11:31;;;;;;;30.05;16.15;;;;;;;;;;5022231;28;20056;-82
2021/01/10 01:13:58;;;;;;;27.48;14.93;;;;;;;;;;5019903;28;20017;-81
2021/01/10 01:16:24;;;;;;;28.40;14.32;;;;;;;;;;5017482;28;20025;-82
2021/01/10 01:18:50;;;;;;;23.27;13.07;;;;;;;;;;5017258;28;20060;-82
2021/01/10 01:21:21;;;;;;;27.42;14.88;;;;;;;;;;5015050;28;20463;-82
2021/01/10 01:23:47;;;;;;;23.80;14.10;;;;;;;;;;5005554;28;20029;-82
2021/01/10 01:26:20;;;;;;;24.13;13.63;;;;;;;;;;5017116;28;20029;-81
2021/01/10 01:28:48;;;;;;;27.48;13.93;;;;;;;;;;5016963;28;20063;-82
2021/01/10 01:31:14;;;;;;;29.92;14.25;;;;;;;;;;5013815;28;20045;-82
2021/01/10 01:33:41;;;;;;;25.65;14.20;;;;;;;;;;5015465;28;20743;-82
2021/01/10 01:36:11;;;;;;;26.40;14.07;;;;;;;;;;5030331;28;20060;-82
2021/01/10 01:38:38;;;;;;;28.88;14.50;;;;;;;;;;5021666;28;20030;-82
2021/01/10 01:41:07;;;;;;;27.38;14.07;;;;;;;;;;5016130;28;20020;-82
2021/01/10 01:43:37;;;;;;;29.42;14.80;;;;;;;;;;5022389;28;20034;-82
2021/01/10 01:46:04;;;;;;;28.67;14.50;;;;;;;;;;5012142;28;20129;-82
2021/01/10 01:48:30;;;;;;;30.13;15.05;;;;;;;;;;4996498;28;20026;-82
2021/01/10 01:51:00;;;;;;;28.25;14.45;;;;;;;;;;5011305;28;20029;-82
2021/01/10 01:53:27;;;;;;;27.70;15.00;;;;;;;;;;5016037;28;20025;-82
2021/01/10 01:55:54;;;;;;;29.65;17.13;;;;;;;;;;5012746;28;20408;-82
2021/01/10 01:58:23;;;;;;;27.63;14.07;;;;;;;;;;5015179;28;20036;-81
2021/01/10 02:00:49;;;;;;;28.65;15.40;;;;;;;;;;5015000;28;20032;-82
2021/01/10 02:03:36;;;;;;;28.80;14.38;;;;;;;;;;5021397;28;20029;-81
2021/01/10 02:06:05;;;;;;;28.85;15.20;;;;;;;;;;5001730;28;20494;-82
2021/01/10 02:08:32;;;;;;;27.67;13.40;;;;;;;;;;5015298;28;20108;-81
2021/01/10 02:11:00;;;;;;;24.45;12.70;;;;;;;;;;5012095;28;20092;-82
2021/01/10 02:13:31;;;;;;;26.65;13.80;;;;;;;;;;4999552;28;20017;-81
2021/01/10 02:15:58;;;;;;;26.10;14.15;;;;;;;;;;5013468;28;20426;-82
2021/01/10 02:18:25;;;;;;;24.17;13.67;;;;;;;;;;5015735;28;20080;-82
2021/01/10 02:20:52;;;;;;;24.00;13.33;;;;;;;;;;5015631;28;20266;-81
2021/01/10 02:23:22;;;;;;;27.33;14.10;;;;;;;;;;5007417;28;20265;-81
2021/01/10 02:25:49;;;;;;;26.30;13.45;;;;;;;;;;4994196;28;20343;-82
2021/01/10 02:28:22;;;;;;;27.97;14.87;;;;;;;;;;5003524;28;20021;-80
2021/01/10 02:30:49;;;;;;;19.08;10.32;;;;;;;;;;4999923;28;20256;-80
2021/01/10 02:33:18;;;;;;;23.30;12.70;;;;;;;;;;5015611;28;20084;-80
2021/01/10 02:35:45;;;;;;;26.03;13.77;;;;;;;;;;5015741;28;20294;-80
2021/01/10 02:38:11;;;;;;;24.57;13.37;;;;;;;;;;5007442;28;20281;-80
2021/01/10 02:40:39;;;;;;;25.47;13.67;;;;;;;;;;5024987;28;20276;-80
2021/01/10 02:43:25;;;;;;;26.67;14.83;;;;;;;;;;5015685;28;20265;-79
2021/01/10 02:45:52;;;;;;;29.33;14.20;;;;;;;;;;5011643;28;20296;-80
2021/01/10 02:48:19;;;;;;;24.47;13.77;;;;;;;;;;5002871;28;20278;-79
2021/01/10 02:50:45;;;;;;;26.07;13.77;;;;;;;;;;5015081;28;20633;-80
2021/01/10 02:53:12;;;;;;;24.33;13.30;;;;;;;;;;5008708;28;20268;-80
2021/01/10 02:55:38;;;;;;;25.83;13.63;;;;;;;;;;5024040;28;20268;-81
2021/01/10 02:58:11;;;;;;;22.33;12.30;;;;;;;;;;5026676;28;20291;-80
2021/01/10 03:00:38;;;;;;;29.50;13.95;;;;;;;;;;5015644;28;20335;-80
2021/01/10 03:03:04;;;;;;;21.73;12.63;;;;;;;;;;5021816;28;20018;-80
2021/01/10 03:05:33;;;;;;;23.97;13.83;;;;;;;;;;5020197;28;20276;-80
2021/01/10 03:07:59;;;;;;;24.83;13.73;;;;;;;;;;5001997;28;20300;-79
2021/01/10 03:10:25;;;;;;;26.10;12.83;;;;;;;;;;4998359;28;20265;-80
2021/01/10 03:12:52;;;;;;;24.13;13.03;;;;;;;;;;5013853;28;20773;-80
2021/01/10 03:15:18;;;;;;;25.47;14.00;;;;;;;;;;5018091;28;20268;-80
2021/01/10 03:17:49;;;;;;;23.73;13.33;;;;;;;;;;5014058;28;20273;-79
2021/01/10 03:20:16;;;;;;;27.13;13.80;;;;;;;;;;5012530;28;20295;-80
2021/01/10 03:22:44;;;;;;;25.90;13.27;;;;;;;;;;5010419;28;20284;-80
2021/01/10 03:25:10;;;;;;;22.90;12.83;;;;;;;;;;5017396;28;20390;-80
2021/01/10 03:27:36;;;;;;;24.07;13.40;;;;;;;;;;5017287;28;20284;-79
2021/01/10 03:30:07;;;;;;;22.30;13.17;;;;;;;;;;5014169;28;20276;-80
2021/01/10 03:32:33;;;;;;;27.13;15.07;;;;;;;;;;5022082;28;20330;-80
2021/01/10 03:34:59;;;;;;;27.27;13.70;;;;;;;;;;5017100;28;20291;-80
2021/01/10 03:37:25;;;;;;;27.07;13.63;;;;;;;;;;5012693;28;20281;-79
2021/01/10 03:39:51;;;;;;;21.10;12.10;;;;;;;;;;4998131;28;20336;-79
2021/01/10 03:42:18;;;;;;;22.03;12.57;;;;;;;;;;4997767;28;20386;-79
2021/01/10 03:44:44;;;;;;;29.83;15.07;;;;;;;;;;4997616;28;20300;-79
2021/01/10 03:47:10;;;;;;;27.97;14.27;;;;;;;;;;4994867;28;20278;-79
2021/01/10 03:49:36;;;;;;;24.80;13.70;;;;;;;;;;5005609;28;20323;-80
2021/01/10 03:52:02;;;;;;;29.33;13.73;;;;;;;;;;4996183;28;20264;-79
2021/01/10 03:54:28;;;;;;;24.83;13.47;;;;;;;;;;5013426;28;20283;-80
2021/01/10 03:56:54;;;;;;;25.57;14.03;;;;;;;;;;5015545;28;20256;-79
2021/01/10 03:59:20;;;;;;;23.50;14.10;;;;;;;;;;4999456;28;20856;-80
2021/01/10 04:01:46;;;;;;;24.57;13.33;;;;;;;;;;5010079;28;20279;-79
2021/01/10 04:04:12;;;;;;;26.33;12.83;;;;;;;;;;5013718;28;20268;-80
2021/01/10 04:06:38;;;;;;;24.17;13.53;;;;;;;;;;5013916;28;20295;-80
2021/01/10 04:09:04;;;;;;;25.93;13.53;;;;;;;;;;5014739;28;20265;-79
2021/01/10 04:11:30;;;;;;;23.50;13.30;;;;;;;;;;5013694;28;20698;-80
2021/01/10 04:13:57;;;;;;;25.63;14.43;;;;;;;;;;5014529;28;20685;-80
2021/01/10 04:16:23;;;;;;;24.10;13.83;;;;;;;;;;5014156;28;20349;-80
2021/01/10 04:18:49;;;;;;;22.57;13.50;;;;;;;;;;4999547;28;20264;-80
2021/01/10 04:21:15;;;;;;;25.07;13.93;;;;;;;;;;5010972;28;20265;-79
2021/01/10 04:23:42;;;;;;;23.43;12.57;;;;;;;;;;5010467;28;20348;-79
2021/01/10 04:26:08;;;;;;;23.83;13.57;;;;;;;;;;5010031;28;20288;-80
2021/01/10 04:28:34;;;;;;;24.90;12.70;;;;;;;;;;5006756;28;20272;-80
2021/01/10 04:31:01;;;;;;;24.37;13.03;;;;;;;;;;4997099;28;20299;-80
2021/01/10 04:33:28;;;;;;;23.07;12.53;;;;;;;;;;5014101;28;20782;-80
2021/01/10 04:35:54;;;;;;;21.57;12.27;;;;;;;;;;5009081;28;20347;-80
2021/01/10 04:38:20;;;;;;;23.33;13.03;;;;;;;;;;5013520;28;20268;-80
2021/01/10 04:40:46;;;;;;;22.40;13.07;;;;;;;;;;5013552;28;20820;-80
2021/01/10 04:43:12;;;;;;;20.57;11.90;;;;;;;;;;5013195;28;20268;-80
2021/01/10 04:45:38;;;;;;;22.43;12.20;;;;;;;;;;5012967;28;20339;-79
2021/01/10 04:48:06;;;;;;;21.80;12.17;;;;;;;;;;5012276;28;20276;-79
2021/01/10 04:50:33;;;;;;;24.07;12.60;;;;;;;;;;5012253;28;21046;-80
2021/01/10 04:53:00;;;;;;;24.37;12.70;;;;;;;;;;5013288;28;20313;-80
2021/01/10 04:55:27;;;;;;;23.07;12.93;;;;;;;;;;5012542;28;20267;-80
2021/01/10 04:58:01;;;;;;;22.13;11.57;;;;;;;;;;5010234;28;20272;-80
2021/01/10 05:00:27;;;;;;;26.15;13.10;;;;;;;;;;5031028;28;20275;-79
2021/01/10 05:02:55;;;;;;;21.90;13.07;;;;;;;;;;5008811;28;20034;-80
2021/01/10 05:05:23;;;;;;;22.10;12.10;;;;;;;;;;5010741;28;20320;-80
2021/01/10 05:07:49;;;;;;;21.07;11.70;;;;;;;;;;4992727;28;20356;-80
2021/01/10 05:10:15;;;;;;;22.53;13.17;;;;;;;;;;4993647;28;20291;-80
2021/01/10 05:12:41;;;;;;;22.27;12.17;;;;;;;;;;5025809;28;20279;-80
2021/01/10 05:15:08;;;;;;;20.57;11.33;;;;;;;;;;5028207;28;20271;-79
2021/01/10 05:17:35;;;;;;;24.17;13.03;;;;;;;;;;5014038;28;20268;-79
2021/01/10 05:20:07;;;;;;;24.57;12.93;;;;;;;;;;4996507;28;20348;-79
2021/01/10 05:22:33;;;;;;;23.33;12.00;;;;;;;;;;5003258;28;20648;-80
2021/01/10 05:25:12;;;;;;;21.27;10.70;;;;;;;;;;5014332;28;20324;-80
2021/01/10 05:27:38;;;;;;;19.50;10.80;;;;;;;;;;5011793;28;20360;-80
2021/01/10 05:30:05;;;;;;;20.23;11.70;;;;;;;;;;5029315;28;20280;-80
2021/01/10 05:32:31;;;;;;;19.87;11.37;;;;;;;;;;5015233;28;20280;-80
2021/01/10 05:35:03;;;;;;;17.70;10.00;;;;;;;;;;5018195;28;20273;-78
2021/01/10 05:37:30;;;;;;;18.63;9.90;;;;;;;;;;5013589;28;20288;-80
2021/01/10 05:39:56;;;;;;;16.83;9.80;;;;;;;;;;5033876;28;20296;-81
2021/01/10 05:42:28;;;;;;;19.03;10.87;;;;;;;;;;5015472;28;20310;-80
2021/01/10 05:44:54;;;;;;;20.77;10.77;;;;;;;;;;4996371;28;20281;-80
2021/01/10 05:47:20;;;;;;;20.70;10.30;;;;;;;;;;5014415;28;20280;-79
2021/01/10 05:49:49;;;;;;;18.90;10.67;;;;;;;;;;5013853;28;20758;-80
2021/01/10 05:52:16;;;;;;;17.23;9.70;;;;;;;;;;5014082;28;20958;-80
2021/01/10 05:54:49;;;;;;;19.77;10.67;;;;;;;;;;5014314;28;20264;-80
2021/01/10 05:57:17;;;;;;;15.68;9.63;;;;;;;;;;5019697;28;20280;-80
2021/01/10 05:59:47;;;;;;;17.93;9.30;;;;;;;;;;5011200;28;20067;-80
2021/01/10 06:02:13;;;;;;;18.73;11.13;;;;;;;;;;5018297;28;20287;-80
2021/01/10 06:04:40;;;;;;;20.80;10.97;;;;;;;;;;5017030;28;20276;-80
2021/01/10 06:07:06;;;;;;;20.43;12.40;;;;;;;;;;5016803;28;20264;-80
2021/01/10 06:09:45;;;;;;;21.07;10.63;;;;;;;;;;5034960;28;20339;-80
2021/01/10 06:12:24;;;;;;;16.80;9.93;;;;;;;;;;5014076;28;20269;-81
2021/01/10 06:15:09;;;;;;;19.83;10.83;;;;;;;;;;4997050;28;20281;-80
2021/01/10 06:17:40;;;;;;;22.67;12.13;;;;;;;;;;4997590;28;20265;-80
2021/01/10 06:20:11;;;;;;;18.80;11.00;;;;;;;;;;5016839;28;20273;-80
2021/01/10 06:22:38;;;;;;;18.47;9.63;;;;;;;;;;5013471;28;20323;-80
2021/01/10 06:25:05;;;;;;;20.30;10.10;;;;;;;;;;4997652;28;20631;-80
2021/01/10 06:27:31;;;;;;;21.50;11.63;;;;;;;;;;4996845;28;20280;-80
2021/01/10 06:29:59;;;;;;;21.50;11.20;;;;;;;;;;5021822;28;20330;-80
2021/01/10 06:32:25;;;;;;;20.47;10.40;;;;;;;;;;5016000;28;20629;-80
2021/01/10 06:34:52;;;;;;;24.93;11.97;;;;;;;;;;5011925;28;20292;-79
2021/01/10 06:37:21;;;;;;;23.23;11.77;;;;;;;;;;4995889;28;21118;-80
2021/01/10 06:39:49;;;;;;;18.93;11.37;;;;;;;;;;4997672;28;20299;-80
2021/01/10 06:42:16;;;;;;;20.67;12.10;;;;;;;;;;5022327;28;20287;-80
2021/01/10 06:44:47;;;;;;;22.07;12.17;;;;;;;;;;5015747;28;20310;-80
2021/01/10 06:47:18;;;;;;;18.77;11.07;;;;;;;;;;5016599;28;20344;-80
2021/01/10 06:49:45;;;;;;;20.85;12.05;;;;;;;;;;5010834;28;20277;-80
2021/01/10 06:52:11;;;;;;;22.23;11.73;;;;;;;;;;5014327;28;20052;-81
2021/01/10 06:54:41;;;;;;;21.17;12.02;;;;;;;;;;5030238;28;20439;-81
2021/01/10 06:57:08;;;;;;;21.93;11.37;;;;;;;;;;5023936;28;20065;-80
2021/01/10 06:59:54;;;;;;;20.37;10.27;;;;;;;;;;5023609;28;20276;-80
2021/01/10 07:02:20;;;;;;;20.40;11.48;;;;;;;;;;5030208;28;20279;-80
2021/01/10 07:04:54;;;;;;;24.98;12.77;;;;;;;;;;5029916;28;20052;-80
2021/01/10 07:07:49;;;;;;;23.17;12.25;;;;;;;;;;5024908;28;20025;-80
2021/01/10 07:10:24;;;;;;;25.23;14.25;;;;;;;;;;5026983;28;20037;-80
2021/01/10 07:12:50;;;;;;;22.87;12.23;;;;;;;;;;5017767;28;20688;-81
2021/01/10 07:15:19;;;;;;;26.88;14.07;;;;;;;;;;5018710;28;20272;-80
2021/01/10 07:18:05;;;;;;;27.27;13.38;;;;;;;;;;5007903;28;20139;-80
2021/01/10 07:20:31;;;;;;;24.45;13.25;;;;;;;;;;5024700;28;20009;-80
2021/01/10 07:23:17;;;;;;;21.27;11.90;;;;;;;;;;5015104;28;20311;-79
2021/01/10 07:25:44;;;;;;;25.17;13.33;;;;;;;;;;5001792;28;20034;-80
2021/01/10 07:28:29;;;;;;;24.17;12.60;;;;;;;;;;5006051;28;20272;-79
2021/01/10 07:31:15;;;;;;;25.30;12.93;;;;;;;;;;5033531;28;20813;-80
2021/01/10 07:33:41;;;;;;;23.60;12.37;;;;;;;;;;5018189;28;20269;-80
2021/01/10 07:36:10;;;;;;;23.67;12.30;;;;;;;;;;5014153;28;20268;-80
2021/01/10 07:38:36;;;;;;;21.47;11.40;;;;;;;;;;4998954;28;20264;-80
2021/01/10 07:41:35;;;;;;;19.30;11.50;;;;;;;;;;5012089;28;20302;-80
2021/01/10 07:44:01;;;;;;;17.23;9.90;;;;;;;;;;4966129;28;20310;-80
2021/01/10 07:46:46;;;;;;;18.30;10.07;;;;;;;;;;5017305;28;20288;-80
2021/01/10 07:49:12;;;;;;;19.43;10.37;;;;;;;;;;5019031;28;20260;-80
2021/01/10 07:51:45;;;;;;;17.00;9.30;;;;;;;;;;5018611;28;20479;-80
2021/01/10 07:54:11;;;;;;;15.52;8.70;;;;;;;;;;5018785;28;20306;-80
2021/01/10 07:56:37;;;;;;;18.30;10.23;;;;;;;;;;5012134;28;20037;-80
2021/01/10 07:59:18;;;;;;;16.70;10.07;;;;;;;;;;4997887;28;20265;-81
2021/01/10 08:01:48;;;;;;;17.27;10.40;;;;;;;;;;4998678;28;20280;-81
2021/01/10 08:04:33;;;;;;;17.73;9.97;;;;;;;;;;5011485;28;20276;-80
2021/01/10 08:07:00;;;;;;;22.57;11.17;;;;;;;;;;4995623;28;20268;-79
2021/01/10 08:09:33;;;;;;;25.37;12.77;;;;;;;;;;4996915;28;20332;-81
2021/01/10 08:12:00;;;;;;;22.40;11.70;;;;;;;;;;5003475;28;20280;-80
2021/01/10 08:14:26;;;;;;;22.17;12.53;;;;;;;;;;5015476;28;20025;-80
2021/01/10 08:16:53;;;;;;;19.30;11.17;;;;;;;;;;5012821;28;20527;-81
2021/01/10 08:19:20;;;;;;;19.70;11.60;;;;;;;;;;5013558;28;20322;-79
2021/01/10 08:21:46;;;;;;;17.63;10.33;;;;;;;;;;5020271;28;20360;-81
2021/01/10 08:24:14;;;;;;;18.73;11.00;;;;;;;;;;5013046;28;20274;-80
2021/01/10 08:26:42;;;;;;;19.37;11.40;;;;;;;;;;5015444;28;20295;-81
2021/01/10 08:29:09;;;;;;;17.23;10.23;;;;;;;;;;5016099;28;20832;-80
2021/01/10 08:31:35;;;;;;;18.37;11.17;;;;;;;;;;4996279;28;20319;-80
2021/01/10 08:34:03;;;;;;;18.63;10.37;;;;;;;;;;5009471;28;20321;-80
2021/01/10 08:36:29;;;;;;;21.73;12.53;;;;;;;;;;5015186;28;20310;-79
2021/01/10 08:38:56;;;;;;;18.23;11.37;;;;;;;;;;4996520;28;20276;-80
2021/01/10 08:41:27;;;;;;;18.10;11.20;;;;;;;;;;5007717;28;20276;-80
2021/01/10 08:43:57;;;;;;;17.87;10.37;;;;;;;;;;5016313;28;20294;-80
2021/01/10 08:46:24;;;;;;;17.47;9.60;;;;;;;;;;5015940;28;20292;-80
2021/01/10 08:48:53;;;;;;;19.90;10.93;;;;;;;;;;5016260;28;20283;-80
2021/01/10 08:51:30;;;;;;;18.17;9.80;;;;;;;;;;5034129;28;20276;-80
2021/01/10 08:53:57;;;;;;;17.97;10.00;;;;;;;;;;5016198;28;20264;-80
2021/01/10 08:56:23;;;;;;;16.70;9.87;;;;;;;;;;5013717;28;20342;-80
2021/01/10 08:58:57;;;;;;;15.67;9.90;;;;;;;;;;5017218;28;20264;-80
2021/01/10 09:01:24;;;;;;;16.60;10.70;;;;;;;;;;5016465;28;20289;-81
2021/01/10 09:04:01;;;;;;;16.17;10.33;;;;;;;;;;5017410;28;20375;-81
2021/01/10 09:06:39;;;;;;;14.83;8.67;;;;;;;;;;4999461;28;20400;-81
2021/01/10 09:09:07;;;;;;;17.07;9.03;;;;;;;;;;4998328;28;20784;-80
2021/01/10 09:11:37;;;;;;;15.60;8.90;;;;;;;;;;5011989;28;20651;-81
2021/01/10 09:14:04;;;;;;;13.37;8.30;;;;;;;;;;5018940;28;20268;-81
2021/01/10 09:16:36;;;;;;;13.63;8.07;;;;;;;;;;5014548;28;20274;-81
2021/01/10 09:19:02;;;;;;;13.63;8.57;;;;;;;;;;5013076;28;20033;-80
2021/01/10 09:21:28;;;;;;;14.57;8.87;;;;;;;;;;5033209;28;20136;-80
2021/01/10 09:23:59;;;;;;;12.63;7.90;;;;;;;;;;5015148;28;20036;-81
2021/01/10 09:26:25;;;;;;;139.40;48.80;;;;;;;;;;5036739;28;20030;-80
2021/01/10 09:28:51;;;;;;;155.83;54.90;;;;;;;;;;5016251;28;20077;-80
2021/01/10 09:31:17;;;;;;;12.98;10.18;;;;;;;;;;5002815;28;20030;-81
2021/01/10 09:33:43;;;;;;;12.35;9.00;;;;;;;;;;5014574;28;20041;-81
2021/01/10 09:36:16;;;;;;;13.13;9.05;;;;;;;;;;5015621;28;20033;-80
2021/01/10 09:38:53;;;;;;;11.75;8.85;;;;;;;;;;5013905;28;20589;-80
2021/01/10 09:41:22;;;;;;;10.00;8.00;;;;;;;;;;5015366;28;20041;-81
2021/01/10 09:43:52;;;;;;;12.50;8.20;;;;;;;;;;5015967;28;20033;-81
2021/01/10 09:46:22;;;;;;;9.98;8.18;;;;;;;;;;5004641;28;20037;-80
2021/01/10 09:48:51;;;;;;;10.02;7.53;;;;;;;;;;5014920;28;20560;-80
2021/01/10 09:51:18;;;;;;;9.52;7.10;;;;;;;;;;5003949;28;20022;-80
2021/01/10 09:53:47;;;;;;;9.48;7.68;;;;;;;;;;5028738;28;20017;-81
2021/01/10 09:56:33;;;;;;;11.30;7.97;;;;;;;;;;5015625;28;20033;-80
2021/01/10 09:58:59;;;;;;;10.23;6.63;;;;;;;;;;5031389;28;20065;-80
2021/01/10 10:01:34;;;;;;;11.53;8.30;;;;;;;;;;5015288;28;20045;-81
2021/01/10 10:04:00;;;;;;;11.33;7.50;;;;;;;;;;5019410;28;20439;-81
2021/01/10 10:06:26;;;;;;;12.17;8.73;;;;;;;;;;5028434;28;20368;-80
2021/01/10 10:08:56;;;;;;;11.80;8.43;;;;;;;;;;5004390;28;20120;-81
2021/01/10 10:11:22;;;;;;;11.70;7.57;;;;;;;;;;5014937;28;20057;-81
2021/01/10 10:13:56;;;;;;;13.50;8.63;;;;;;;;;;5017708;28;20025;-81
2021/01/10 10:16:23;;;;;;;10.87;7.80;;;;;;;;;;5018375;28;20037;-81
2021/01/10 10:18:49;;;;;;;11.03;7.63;;;;;;;;;;5018371;28;20036;-81
2021/01/10 10:21:23;;;;;;;11.60;7.70;;;;;;;;;;5013810;28;20054;-81
2021/01/10 10:23:49;;;;;;;13.17;8.33;;;;;;;;;;5017028;28;20034;-81
2021/01/10 10:26:15;;;;;;;13.10;8.07;;;;;;;;;;5015312;28;20760;-82
2021/01/10 10:28:41;;;;;;;13.53;8.00;;;;;;;;;;5012378;28;20033;-82
2021/01/10 10:31:08;;;;;;;12.87;8.70;;;;;;;;;;5001625;28;20168;-82
2021/01/10 10:33:34;;;;;;;12.57;8.43;;;;;;;;;;5010039;28;20044;-82
2021/01/10 10:36:01;;;;;;;13.00;8.30;;;;;;;;;;5012124;28;20540;-82
2021/01/10 10:38:27;;;;;;;12.90;7.80;;;;;;;;;;5014599;28;20229;-82
2021/01/10 10:40:54;;;;;;;12.73;9.03;;;;;;;;;;5007069;28;20033;-82
2021/01/10 10:43:20;;;;;;;12.90;8.10;;;;;;;;;;5014851;28;20034;-82
2021/01/10 10:45:46;;;;;;;12.33;8.63;;;;;;;;;;5015444;28;20397;-81
2021/01/10 10:48:12;;;;;;;15.13;9.63;;;;;;;;;;5031387;28;20030;-82
2021/01/10 10:50:38;;;;;;;14.97;9.77;;;;;;;;;;5004257;28;20033;-84
2021/01/10 10:53:08;;;;;;;16.57;10.13;;;;;;;;;;5014017;28;20064;-84
2021/01/10 10:55:34;;;;;;;16.40;10.33;;;;;;;;;;5014767;28;20033;-83
2021/01/10 10:58:00;;;;;;;17.00;10.50;;;;;;;;;;5016170;28;20033;-81
2021/01/10 11:00:26;;;;;;;17.77;10.40;;;;;;;;;;5017338;28;20059;-82
2021/01/10 11:02:53;;;;;;;15.43;9.33;;;;;;;;;;5014774;28;20459;-85
2021/01/10 11:05:22;;;;;;;15.00;8.93;;;;;;;;;;5014088;28;20056;-81
2021/01/10 11:07:48;;;;;;;12.97;9.07;;;;;;;;;;5014155;28;20026;-81
2021/01/10 11:10:14;;;;;;;13.40;9.33;;;;;;;;;;4994872;28;20498;-80
2021/01/10 11:12:40;;;;;;;13.57;9.47;;;;;;;;;;4995918;28;20034;-80
2021/01/10 11:15:08;;;;;;;14.33;9.60;;;;;;;;;;4997187;28;20146;-80
2021/01/10 11:17:34;;;;;;;14.20;9.43;;;;;;;;;;4995048;28;20487;-81
2021/01/10 11:20:04;;;;;;;17.30;10.07;;;;;;;;;;4995994;28;20077;-80
2021/01/10 11:22:35;;;;;;;13.83;10.03;;;;;;;;;;5010442;28;20216;-80
2021/01/10 11:25:05;;;;;;;13.87;9.80;;;;;;;;;;5014639;28;20040;-80
2021/01/10 11:27:31;;;;;;;12.07;9.07;;;;;;;;;;5013687;28;20032;-80
2021/01/10 11:29:58;;;;;;;12.23;8.73;;;;;;;;;;5013931;28;20414;-81
2021/01/10 11:32:34;;;;;;;11.73;8.55;;;;;;;;;;5031613;28;20026;-80
2021/01/10 11:35:01;;;;;;;12.55;9.25;;;;;;;;;;5017199;28;20037;-81
2021/01/10 11:37:27;;;;;;;12.73;9.50;;;;;;;;;;5017711;28;20103;-81
2021/01/10 11:39:53;;;;;;;12.13;8.47;;;;;;;;;;5038430;28;20044;-80
2021/01/10 11:42:20;;;;;;;17.50;10.10;;;;;;;;;;5034306;28;20274;-80
2021/01/10 11:44:46;;;;;;;13.37;9.90;;;;;;;;;;5013073;28;20105;-80
2021/01/10 11:47:12;;;;;;;13.97;9.57;;;;;;;;;;5015401;28;20026;-82
2021/01/10 11:49:38;;;;;;;15.20;10.17;;;;;;;;;;5021109;28;20128;-80
2021/01/10 11:52:04;;;;;;;15.40;9.80;;;;;;;;;;5017646;28;20085;-80
2021/01/10 13:33:06;;;;;;;18.03;9.53;;;;;;;;;;5027728;28;20088;-85
2021/01/10 13:35:37;;;;;;;14.80;8.80;;;;;;;;;;5024073;28;20045;-84
2021/01/10 13:38:07;;;;;;;15.00;9.93;;;;;;;;;;4996639;28;20035;-85
2021/01/10 13:41:04;;;;;;;15.80;9.50;;;;;;;;;;4973750;28;20273;-85
2021/01/10 13:43:35;;;;;;;16.20;10.07;;;;;;;;;;4953927;28;20038;-85
2021/01/10 13:46:05;;;;;;;16.07;10.00;;;;;;;;;;4983449;28;20308;-85
2021/01/10 13:48:31;;;;;;;17.57;11.20;;;;;;;;;;4979237;28;20277;-84
2021/01/10 13:50:57;;;;;;;14.77;9.63;;;;;;;;;;4999801;28;20337;-83
2021/01/10 13:53:23;;;;;;;17.10;10.47;;;;;;;;;;4987971;28;20269;-85
2021/01/10 13:55:50;;;;;;;20.40;11.70;;;;;;;;;;4974447;28;20254;-85
2021/01/10 13:58:16;;;;;;;18.33;11.43;;;;;;;;;;4990976;28;20281;-85
2021/01/10 14:00:45;;;;;;;18.83;11.23;;;;;;;;;;4991605;28;20826;-85
2021/01/10 14:03:11;;;;;;;15.90;9.67;;;;;;;;;;4992472;28;20269;-86
2021/01/10 14:05:40;;;;;;;17.00;11.43;;;;;;;;;;4980282;28;20369;-85
2021/01/10 14:08:06;;;;;;;19.57;12.33;;;;;;;;;;4972197;28;20641;-85
2021/01/10 14:10:32;;;;;;;19.40;11.40;;;;;;;;;;4972604;28;20275;-85
2021/01/10 14:12:58;;;;;;;17.43;11.10;;;;;;;;;;4984117;28;20967;-85
2021/01/10 14:15:24;;;;;;;17.13;11.07;;;;;;;;;;4972777;28;20276;-86
2021/01/10 14:17:50;;;;;;;17.33;11.23;;;;;;;;;;4972143;28;20269;-86
2021/01/10 14:20:16;;;;;;;16.93;11.17;;;;;;;;;;4972226;28;20768;-85
2021/01/10 14:22:42;;;;;;;18.10;11.13;;;;;;;;;;4974750;28;20832;-85
2021/01/10 14:25:08;;;;;;;16.83;10.23;;;;;;;;;;4976291;28;20286;-83
2021/01/10 14:27:35;;;;;;;17.93;10.73;;;;;;;;;;4975693;28;20269;-84
2021/01/10 14:30:01;;;;;;;21.07;11.43;;;;;;;;;;4988060;28;20284;-86
2021/01/10 14:32:27;;;;;;;20.73;11.77;;;;;;;;;;4988669;28;20283;-85
2021/01/10 14:34:53;;;;;;;18.20;11.50;;;;;;;;;;4996217;28;20327;-84
2021/01/10 14:37:19;;;;;;;19.00;11.63;;;;;;;;;;4995059;28;20277;-85
2021/01/10 14:39:45;;;;;;;19.17;11.07;;;;;;;;;;4996330;28;20300;-85
2021/01/10 14:42:11;;;;;;;19.93;11.70;;;;;;;;;;4995343;28;20276;-85
2021/01/10 14:44:37;;;;;;;20.87;12.50;;;;;;;;;;4996829;28;20273;-84
2021/01/10 14:47:03;;;;;;;22.33;13.13;;;;;;;;;;4997592;28;20265;-83
2021/01/10 14:49:30;;;;;;;21.37;12.87;;;;;;;;;;4997644;28;20284;-85
2021/01/10 14:51:56;;;;;;;21.93;12.37;;;;;;;;;;4998658;28;20367;-85
2021/01/10 14:54:22;;;;;;;19.83;12.67;;;;;;;;;;4999380;28;20275;-84
2021/01/10 14:56:48;;;;;;;22.03;13.17;;;;;;;;;;4999687;28;20307;-84
2021/01/10 14:59:14;;;;;;;19.27;12.13;;;;;;;;;;4995907;28;20364;-83
2021/01/10 15:01:41;;;;;;;22.07;12.27;;;;;;;;;;4991887;28;20365;-84
2021/01/10 15:04:07;;;;;;;20.33;12.83;;;;;;;;;;4977653;28;20320;-85
2021/01/10 15:06:36;;;;;;;22.77;13.93;;;;;;;;;;4976599;28;20291;-85
2021/01/10 15:09:02;;;;;;;25.93;17.50;;;;;;;;;;4976766;28;20274;-85
2021/01/10 15:11:30;;;;;;;21.30;13.37;;;;;;;;;;4976717;28;20278;-85
2021/01/10 15:13:57;;;;;;;22.07;12.83;;;;;;;;;;4976745;28;20670;-85
2021/01/10 15:16:24;;;;;;;21.13;13.13;;;;;;;;;;4977241;28;20278;-85
2021/01/10 15:18:52;;;;;;;29.23;13.70;;;;;;;;;;4977156;28;20627;-85
2021/01/10 15:21:19;;;;;;;22.00;12.90;;;;;;;;;;4977736;28;20270;-84
2021/01/10 15:23:45;;;;;;;25.23;14.30;;;;;;;;;;4976206;28;20261;-84
2021/01/10 15:26:11;;;;;;;29.10;13.77;;;;;;;;;;4978290;28;20313;-82
2021/01/10 15:28:38;;;;;;;18.07;11.40;;;;;;;;;;5011321;28;20348;-83
2021/01/10 15:31:04;;;;;;;18.13;11.83;;;;;;;;;;5009995;28;20269;-83
2021/01/10 15:33:31;;;;;;;20.83;12.17;;;;;;;;;;5014544;28;20268;-84
2021/01/10 15:35:58;;;;;;;19.90;11.93;;;;;;;;;;4999392;28;21069;-83
2021/01/10 15:38:24;;;;;;;21.23;12.47;;;;;;;;;;4979339;28;20301;-83
2021/01/10 15:40:51;;;;;;;21.43;12.00;;;;;;;;;;4976125;28;20270;-83
2021/01/10 15:43:17;;;;;;;23.47;13.17;;;;;;;;;;4976596;28;20269;-83
2021/01/10 15:45:43;;;;;;;20.83;13.60;;;;;;;;;;4975962;28;20285;-82
2021/01/10 15:48:09;;;;;;;22.50;12.73;;;;;;;;;;4975340;28;20302;-83
2021/01/10 15:50:35;;;;;;;24.83;14.37;;;;;;;;;;4974782;28;20262;-83
2021/01/10 15:53:02;;;;;;;28.83;16.33;;;;;;;;;;4984507;28;20646;-83
2021/01/10 15:55:32;;;;;;;26.03;15.37;;;;;;;;;;5012311;28;20257;-83
2021/01/10 15:57:58;;;;;;;22.90;13.70;;;;;;;;;;4997447;28;20287;-81
2021/01/10 16:00:24;;;;;;;21.95;13.52;;;;;;;;;;5035338;28;20285;-80
2021/01/10 16:02:50;;;;;;;24.80;13.63;;;;;;;;;;4992163;28;20034;-82
2021/01/10 16:05:16;;;;;;;28.27;14.57;;;;;;;;;;4981410;28;20312;-82